Time;durP1;ratioP1;P1;durP2;ratioP2;P2;SDS_P1;SDS_P2;PMS_P1;PMS_P2;Temp;Humidity;BMP_temperature;BMP_pressure;BME280_temperature;BME280_humidity;BME280_pressure;Samples;Min_cycle;Max_cycle;Signal;HPM_P1;HPM_P2
2022/12/27 00:01:46;;;;;;;19.13;4.13;;;4.70;99.90;;;;;;5052725;28;20029;-71
2022/12/27 00:04:12;;;;;;;12.13;3.90;;;4.70;99.90;;;;;;5047725;28;20033;-71
2022/12/27 00:06:38;;;;;;;10.35;3.53;;;4.70;99.90;;;;;;5043112;28;20104;-70
2022/12/27 00:09:04;;;;;;;17.50;4.45;;;4.60;99.90;;;;;;5052486;28;20087;-70
2022/12/27 00:11:29;;;;;;;15.70;2.90;;;4.70;99.90;;;;;;5045116;28;20476;-70
2022/12/27 00:13:58;;;;;;;8.32;2.85;;;4.70;99.90;;;;;;5057740;28;20067;-71
2022/12/27 00:16:24;;;;;;;10.93;3.00;;;4.60;99.90;;;;;;5060132;28;20393;-71
2022/12/27 00:18:51;;;;;;;8.95;2.65;;;4.70;99.90;;;;;;5060405;28;20033;-70
2022/12/27 00:21:17;;;;;;;12.93;3.67;;;4.70;99.90;;;;;;5061239;28;20469;-69
2022/12/27 00:23:46;;;;;;;9.23;2.92;;;4.70;99.90;;;;;;5066544;28;20352;-70
2022/12/27 00:26:14;;;;;;;14.77;3.42;;;4.80;99.90;;;;;;5061173;28;20053;-71
2022/12/27 00:28:40;;;;;;;13.95;2.88;;;4.90;99.90;;;;;;5057467;28;20136;-71
2022/12/27 00:31:06;;;;;;;6.75;2.17;;;4.80;99.90;;;;;;5057621;28;20128;-71
2022/12/27 00:33:34;;;;;;;12.80;3.58;;;4.90;99.90;;;;;;5058231;28;20013;-71
2022/12/27 00:36:01;;;;;;;10.98;2.25;;;4.90;99.90;;;;;;5057395;28;20150;-71
2022/12/27 00:38:27;;;;;;;9.82;2.28;;;5.00;99.90;;;;;;5057900;28;20111;-72
2022/12/27 00:40:53;;;;;;;12.18;3.80;;;5.00;99.90;;;;;;5056586;28;20086;-72
2022/12/27 00:43:19;;;;;;;19.08;6.10;;;5.10;99.90;;;;;;5056444;28;20036;-71
2022/12/27 00:45:45;;;;;;;16.92;3.47;;;5.20;99.90;;;;;;5055304;28;20029;-71
2022/12/27 00:48:11;;;;;;;11.55;2.92;;;5.20;99.90;;;;;;5055516;28;20059;-70
2022/12/27 00:50:39;;;;;;;8.23;2.85;;;5.20;99.90;;;;;;5054421;28;20477;-70
2022/12/27 00:53:05;;;;;;;12.55;3.08;;;5.10;99.90;;;;;;5055259;28;20052;-72
2022/12/27 00:55:31;;;;;;;5.53;2.38;;;5.00;99.90;;;;;;5054658;28;20370;-71
2022/12/27 00:57:57;;;;;;;13.73;3.10;;;5.00;99.90;;;;;;5053838;28;20028;-72
2022/12/27 01:00:22;;;;;;;12.25;2.58;;;5.00;99.90;;;;;;5054736;28;20087;-71
2022/12/27 01:02:48;;;;;;;11.05;2.60;;;4.90;99.90;;;;;;5054685;28;20107;-71
2022/12/27 01:05:14;;;;;;;13.02;2.55;;;4.90;99.90;;;;;;5053456;28;20029;-73
2022/12/27 01:07:39;;;;;;;9.20;2.70;;;4.90;99.90;;;;;;5054758;28;20208;-71
2022/12/27 01:10:05;;;;;;;12.98;2.25;;;4.90;99.90;;;;;;5047890;28;20397;-70
2022/12/27 01:12:31;;;;;;;5.43;2.33;;;4.90;99.90;;;;;;5045608;28;20051;-71
2022/12/27 01:14:56;;;;;;;10.15;3.63;;;4.90;99.90;;;;;;5053774;28;20040;-71
2022/12/27 01:17:22;;;;;;;12.35;3.22;;;4.90;99.90;;;;;;5054393;28;20475;-71
2022/12/27 01:19:48;;;;;;;12.63;3.65;;;5.00;99.90;;;;;;5054662;28;20033;-70
2022/12/27 01:22:13;;;;;;;10.18;2.63;;;5.00;99.90;;;;;;5054744;28;20461;-71
2022/12/27 01:24:39;;;;;;;9.80;3.20;;;5.10;99.90;;;;;;5054385;28;20025;-71
2022/12/27 01:27:04;;;;;;;11.23;2.63;;;5.20;99.90;;;;;;5052373;28;20044;-70
2022/12/27 01:29:30;;;;;;;11.30;2.30;;;5.20;99.90;;;;;;5053551;28;20119;-70
2022/12/27 01:31:55;;;;;;;12.80;2.42;;;5.20;99.90;;;;;;5053400;28;20381;-70
2022/12/27 01:34:21;;;;;;;6.82;2.05;;;5.20;99.90;;;;;;5055913;28;20374;-71
2022/12/27 01:36:46;;;;;;;4.57;1.70;;;5.30;99.90;;;;;;5055443;28;20035;-71
2022/12/27 01:39:13;;;;;;;3.90;2.20;;;5.30;99.90;;;;;;5053856;28;20504;-71
2022/12/27 01:44:38;;;;;;;7.82;2.97;;;5.30;99.90;;;;;;5054155;28;20035;-70
2022/12/27 01:47:32;;;;;;;12.45;1.92;;;5.40;99.90;;;;;;5053359;28;20056;-71
2022/12/27 01:50:13;;;;;;;7.60;2.00;;;5.30;99.90;;;;;;5050581;28;20051;-71
2022/12/27 01:52:49;;;;;;;16.05;2.33;;;5.30;99.90;;;;;;5053452;28;20815;-72
2022/12/27 01:55:23;;;;;;;12.45;2.10;;;5.30;99.90;;;;;;5052846;28;20140;-71
2022/12/27 01:57:50;;;;;;;13.38;2.33;;;5.20;99.90;;;;;;5054352;28;20032;-71
2022/12/27 02:00:16;;;;;;;9.75;2.53;;;5.20;99.90;;;;;;5054605;28;20021;-71
2022/12/27 02:02:42;;;;;;;7.93;2.65;;;5.20;99.90;;;;;;5054481;28;20027;-71
2022/12/27 02:05:11;;;;;;;7.28;2.17;;;5.10;99.90;;;;;;5054641;28;20115;-71
2022/12/27 02:08:21;;;;;;;9.07;2.30;;;5.10;99.90;;;;;;5054546;28;20036;-71
2022/12/27 02:10:47;;;;;;;10.32;2.60;;;5.10;99.90;;;;;;5041855;28;20144;-71
2022/12/27 02:13:14;;;;;;;9.10;3.22;;;5.20;99.90;;;;;;5050889;28;20068;-71
2022/12/27 02:15:40;;;;;;;8.38;3.13;;;5.20;99.90;;;;;;5052918;28;20033;-71
2022/12/27 02:18:06;;;;;;;13.02;2.83;;;5.40;99.90;;;;;;5046176;28;20021;-70
2022/12/27 02:21:13;;;;;;;11.85;2.83;;;5.40;99.90;;;;;;5032670;28;20508;-70
2022/12/27 02:24:03;;;;;;;11.27;2.60;;;5.40;99.90;;;;;;5030562;28;20033;-71
2022/12/27 02:26:47;;;;;;;16.30;2.83;;;5.40;99.90;;;;;;5032230;28;20053;-71
2022/12/27 02:29:31;;;;;;;12.07;2.95;;;5.40;99.90;;;;;;5032154;28;20022;-70
2022/12/27 02:32:18;;;;;;;18.08;2.60;;;5.30;99.90;;;;;;5033037;28;20021;-70
2022/12/27 02:35:14;;;;;;;9.00;2.85;;;5.40;99.90;;;;;;5032409;28;20371;-70
2022/12/27 02:37:57;;;;;;;27.75;4.50;;;5.30;99.90;;;;;;5032766;28;20446;-71
2022/12/27 02:58:48;;;;;;;10.55;2.95;;;5.20;99.90;;;;;;5039464;28;20060;-70
2022/12/27 03:04:27;;;;;;;11.73;2.60;;;5.20;99.90;;;;;;5045572;28;20480;-71
2022/12/27 03:07:20;;;;;;;20.67;3.03;;;5.20;99.90;;;;;;5050399;28;20568;-71
2022/12/27 03:16:23;;;;;;;15.23;2.75;;;5.00;99.90;;;;;;5051572;28;20464;-70
2022/12/27 03:18:57;;;;;;;15.43;2.92;;;5.10;99.90;;;;;;5051627;28;20036;-70
2022/12/27 03:27:30;;;;;;;10.57;2.15;;;5.10;99.90;;;;;;5050394;28;20051;-70
2022/12/27 03:33:12;;;;;;;9.60;2.47;;;5.20;99.90;;;;;;5053736;28;20047;-71
2022/12/27 03:38:01;;;;;;;13.32;3.45;;;5.20;99.90;;;;;;5056796;28;20108;-71
2022/12/27 03:38:35;;;;;;;11.15;2.78;;;5.30;99.90;;;;;;5055146;28;20466;-70
2022/12/27 03:43:49;;;;;;;16.08;2.55;;;5.30;99.90;;;;;;5052569;28;20056;-71
2022/12/27 03:46:32;;;;;;;25.17;4.22;;;5.30;99.90;;;;;;5051553;28;20477;-70
2022/12/27 03:49:21;;;;;;;24.27;4.63;;;5.30;99.90;;;;;;5051583;28;20025;-71
2022/12/27 03:51:50;;;;;;;10.25;3.10;;;5.20;99.90;;;;;;5039434;28;20047;-70
2022/12/27 03:54:25;;;;;;;17.35;3.42;;;5.10;99.90;;;;;;5051404;28;20021;-72
2022/12/27 03:56:53;;;;;;;17.17;2.97;;;5.10;99.90;;;;;;5051221;28;20056;-71
2022/12/27 03:59:19;;;;;;;17.52;3.20;;;5.00;99.90;;;;;;5038349;28;20053;-72
2022/12/27 04:01:45;;;;;;;12.95;2.63;;;5.10;99.90;;;;;;5056994;28;20009;-71
2022/12/27 04:04:10;;;;;;;14.35;2.78;;;5.00;99.90;;;;;;5053774;28;20070;-70
2022/12/27 04:06:36;;;;;;;18.48;3.38;;;5.00;99.90;;;;;;5051318;28;20060;-71
2022/12/27 04:36:22;;;;;;;18.40;3.22;;;5.10;99.90;;;;;;5054372;28;20535;-71
2022/12/27 04:38:47;;;;;;;10.55;2.60;;;5.10;99.90;;;;;;5055070;28;20032;-70
2022/12/27 04:55:20;;;;;;;15.43;2.60;;;4.80;99.90;;;;;;5055144;28;20028;-71
2022/12/27 04:57:46;;;;;;;12.13;4.47;;;4.70;99.90;;;;;;5055027;28;20025;-71
2022/12/27 05:02:59;;;;;;;15.50;2.67;;;4.70;99.90;;;;;;5054065;28;20598;-70
2022/12/27 05:05:25;;;;;;;12.27;2.63;;;4.60;99.90;;;;;;5054705;28;20016;-71
2022/12/27 05:16:04;;;;;;;16.73;3.00;;;4.70;99.90;;;;;;5054875;28;20035;-71
2022/12/27 05:18:30;;;;;;;9.35;2.28;;;4.70;99.90;;;;;;5053267;28;20029;-71
2022/12/27 05:21:01;;;;;;;11.38;2.10;;;4.70;99.90;;;;;;5054413;28;20025;-72
2022/12/27 05:26:24;;;;;;;12.77;2.55;;;4.70;99.90;;;;;;5029722;28;20073;-71
2022/12/27 05:28:54;;;;;;;29.60;3.42;;;4.60;99.90;;;;;;5031712;28;20022;-72
2022/12/27 05:31:21;;;;;;;;;;;4.70;99.90;;;;;;5033957;28;20415;-71
2022/12/27 05:33:46;;;;;;;9.77;2.30;;;4.60;99.90;;;;;;5034276;28;19905;-71
2022/12/27 05:36:12;;;;;;;17.45;2.75;;;4.60;99.90;;;;;;5034251;28;20485;-70
2022/12/27 05:38:38;;;;;;;13.30;2.20;;;4.50;99.90;;;;;;5031249;28;20040;-71
2022/12/27 05:41:04;;;;;;;15.48;2.05;;;4.50;99.90;;;;;;5015863;28;20029;-70
2022/12/27 05:43:30;;;;;;;11.63;2.50;;;4.50;99.90;;;;;;5013537;28;20034;-73
2022/12/27 05:46:11;;;;;;;18.05;2.50;;;4.50;99.90;;;;;;5011772;28;20030;-72
2022/12/27 05:48:38;;;;;;;12.88;2.45;;;4.50;99.90;;;;;;5015128;28;20030;-72
2022/12/27 05:51:05;;;;;;;16.63;2.83;;;4.70;99.90;;;;;;5013523;28;20038;-69
2022/12/27 05:53:31;;;;;;;9.02;1.67;;;4.60;99.90;;;;;;5013534;28;20034;-70
2022/12/27 05:55:57;;;;;;;11.02;2.25;;;4.60;99.90;;;;;;5013944;28;20406;-71
2022/12/27 05:58:23;;;;;;;19.60;2.80;;;4.60;99.90;;;;;;5014008;28;20101;-71
2022/12/27 06:00:49;;;;;;;10.57;2.53;;;4.70;99.90;;;;;;5023880;28;20035;-72
2022/12/27 06:03:15;;;;;;;6.93;1.95;;;4.60;99.90;;;;;;5033725;28;20033;-71
2022/12/27 06:05:40;;;;;;;9.85;2.33;;;4.60;99.90;;;;;;5032900;28;20028;-71
2022/12/27 06:08:07;;;;;;;15.32;2.15;;;4.50;99.90;;;;;;5033295;28;20059;-71
2022/12/27 06:10:32;;;;;;;8.90;2.38;;;4.50;99.90;;;;;;5033619;28;20044;-70
2022/12/27 06:13:01;;;;;;;10.23;2.38;;;4.60;99.90;;;;;;5022779;28;20374;-70
2022/12/27 06:15:27;;;;;;;14.52;2.60;;;4.70;99.90;;;;;;5012873;28;20029;-70
2022/12/27 06:17:53;;;;;;;12.05;2.70;;;4.60;99.90;;;;;;5013127;28;20099;-71
2022/12/27 06:20:18;;;;;;;12.13;2.17;;;4.80;99.90;;;;;;5024730;28;20037;-70
2022/12/27 06:22:44;;;;;;;12.80;2.95;;;4.80;99.90;;;;;;5027328;28;20032;-71
2022/12/27 06:25:10;;;;;;;26.15;2.75;;;4.80;99.90;;;;;;5027260;28;20061;-71
2022/12/27 06:27:36;;;;;;;14.65;2.42;;;4.80;99.90;;;;;;5046632;28;20025;-71
2022/12/27 06:30:02;;;;;;;12.43;2.50;;;4.80;99.90;;;;;;5049260;28;20068;-71
2022/12/27 06:32:27;;;;;;;12.32;2.10;;;4.80;99.90;;;;;;5048012;28;20122;-71
2022/12/27 06:34:53;;;;;;;18.25;2.65;;;4.80;99.90;;;;;;5049545;28;20362;-71
2022/12/27 06:37:18;;;;;;;22.20;3.13;;;4.70;99.90;;;;;;5048425;28;20033;-71
2022/12/27 06:39:44;;;;;;;23.65;3.80;;;4.80;99.90;;;;;;5049518;28;20021;-71
2022/12/27 06:42:09;;;;;;;8.70;1.80;;;4.70;99.90;;;;;;5045038;28;20028;-71
2022/12/27 06:44:35;;;;;;;12.40;2.50;;;4.80;99.90;;;;;;5047783;28;20071;-72
2022/12/27 06:47:01;;;;;;;12.00;2.08;;;4.70;99.90;;;;;;5048328;28;20020;-70
2022/12/27 06:49:28;;;;;;;13.02;2.53;;;4.70;99.90;;;;;;5045479;28;20054;-70
2022/12/27 06:51:53;;;;;;;10.63;2.20;;;4.60;99.90;;;;;;5046452;28;20035;-71
2022/12/27 06:54:19;;;;;;;15.38;2.67;;;4.60;99.90;;;;;;5047641;28;20025;-71
2022/12/27 06:56:44;;;;;;;14.13;2.78;;;4.60;99.90;;;;;;5048943;28;20028;-70
2022/12/27 06:59:10;;;;;;;11.63;1.98;;;4.50;99.90;;;;;;5046109;28;20021;-70
2022/12/27 07:01:36;;;;;;;24.08;3.45;;;4.50;99.90;;;;;;5049325;28;20078;-70
2022/12/27 07:04:01;;;;;;;11.80;2.35;;;4.50;99.90;;;;;;5045827;28;20028;-71
2022/12/27 07:06:29;;;;;;;12.13;2.15;;;4.50;99.90;;;;;;5050493;28;20021;-70
2022/12/27 07:08:57;;;;;;;9.98;1.80;;;4.50;99.90;;;;;;5049429;28;20036;-72
2022/12/27 07:11:23;;;;;;;10.50;2.60;;;4.50;99.90;;;;;;5049784;28;20033;-70
2022/12/27 07:13:51;;;;;;;14.10;2.70;;;4.50;99.90;;;;;;5052886;28;20059;-71
2022/12/27 07:16:20;;;;;;;12.77;2.53;;;4.50;99.90;;;;;;5051691;28;20533;-72
2022/12/27 07:18:46;;;;;;;8.88;2.00;;;4.40;99.90;;;;;;5052057;28;20029;-71
2022/12/27 07:21:14;;;;;;;8.55;2.05;;;4.40;99.90;;;;;;5050105;28;20052;-71
2022/12/27 07:23:40;;;;;;;19.45;4.78;;;4.30;99.90;;;;;;5052213;28;20029;-70
2022/12/27 07:26:11;;;;;;;10.57;2.80;;;4.20;99.90;;;;;;5051881;28;20051;-70
2022/12/27 07:28:37;;;;;;;11.75;3.17;;;4.20;99.90;;;;;;5051324;28;20021;-71
2022/12/27 07:31:07;;;;;;;23.13;3.63;;;4.20;99.90;;;;;;5050335;28;20041;-70
2022/12/27 07:33:33;;;;;;;;;;;4.20;99.90;;;;;;5052307;28;20021;-70
2022/12/27 07:36:00;;;;;;;11.77;2.30;;;4.30;99.90;;;;;;5052396;28;19908;-71
2022/12/27 07:38:26;;;;;;;15.77;2.90;;;4.30;99.90;;;;;;5051602;28;20028;-71
2022/12/27 07:40:52;;;;;;;14.88;3.55;;;4.30;99.90;;;;;;5051532;28;20144;-72
2022/12/27 07:43:18;;;;;;;11.70;2.90;;;4.30;99.90;;;;;;5052731;28;20594;-71
2022/12/27 07:45:44;;;;;;;20.90;4.32;;;4.40;99.90;;;;;;5051463;28;20075;-71
2022/12/27 07:48:09;;;;;;;16.92;4.20;;;4.40;99.90;;;;;;5051818;28;20469;-73
2022/12/27 07:50:35;;;;;;;10.73;3.33;;;4.40;99.90;;;;;;5051823;28;20477;-70
2022/12/27 07:53:00;;;;;;;18.00;3.95;;;4.40;99.90;;;;;;5052279;28;20511;-70
2022/12/27 07:55:26;;;;;;;14.20;3.20;;;4.40;99.90;;;;;;5056156;28;20052;-72
2022/12/27 07:57:51;;;;;;;10.15;3.03;;;4.50;99.90;;;;;;5055451;28;20483;-71
2022/12/27 08:00:17;;;;;;;14.07;3.42;;;4.50;99.90;;;;;;5040734;28;20021;-71
2022/12/27 08:02:43;;;;;;;17.50;3.55;;;4.40;99.90;;;;;;5054428;28;20028;-72
2022/12/27 08:05:09;;;;;;;16.30;3.28;;;4.40;99.90;;;;;;5053740;28;20024;-71
2022/12/27 08:07:35;;;;;;;18.05;3.78;;;4.40;99.90;;;;;;5054294;28;20461;-71
2022/12/27 08:10:00;;;;;;;12.05;2.70;;;4.40;99.90;;;;;;5054232;28;20053;-71
2022/12/27 08:12:26;;;;;;;12.73;3.88;;;4.30;99.90;;;;;;5054234;28;20028;-71
2022/12/27 08:14:52;;;;;;;14.95;3.40;;;4.30;99.90;;;;;;5053743;28;20021;-71
2022/12/27 08:17:21;;;;;;;13.23;3.17;;;4.20;99.90;;;;;;5049871;28;20117;-72
2022/12/27 08:19:49;;;;;;;16.05;3.42;;;4.30;99.90;;;;;;5048180;28;20431;-71
2022/12/27 08:22:15;;;;;;;18.92;4.18;;;4.30;99.90;;;;;;5047532;28;20140;-72
2022/12/27 08:24:41;;;;;;;12.63;3.85;;;4.20;99.90;;;;;;5048305;28;20025;-72
2022/12/27 08:27:07;;;;;;;17.02;4.68;;;4.20;99.90;;;;;;5050573;28;20041;-71
2022/12/27 08:29:33;;;;;;;14.45;4.70;;;4.20;99.90;;;;;;5045555;28;20071;-70
2022/12/27 08:31:58;;;;;;;11.07;3.95;;;4.20;99.90;;;;;;5034603;28;20033;-72
2022/12/27 08:34:24;;;;;;;16.00;3.95;;;4.30;99.90;;;;;;5037231;28;20626;-72
2022/12/27 08:36:50;;;;;;;16.20;4.93;;;4.20;99.90;;;;;;5040353;28;20075;-72
2022/12/27 08:39:16;;;;;;;13.82;3.67;;;4.20;99.90;;;;;;5052004;28;20033;-72
2022/12/27 08:41:42;;;;;;;12.98;3.70;;;4.20;99.90;;;;;;5041192;28;20156;-72
2022/12/27 08:44:08;;;;;;;16.15;3.70;;;4.20;99.90;;;;;;5037625;28;20108;-73
2022/12/27 08:46:34;;;;;;;14.02;4.35;;;4.20;99.90;;;;;;5045619;28;20100;-73
2022/12/27 08:49:00;;;;;;;9.88;3.80;;;4.20;99.90;;;;;;5038581;28;20105;-71
2022/12/27 08:51:25;;;;;;;10.25;3.90;;;4.20;99.90;;;;;;5051494;28;20036;-72
2022/12/27 08:53:51;;;;;;;11.63;3.60;;;4.20;99.90;;;;;;5051555;28;20028;-71
2022/12/27 08:56:16;;;;;;;19.70;3.83;;;4.20;99.90;;;;;;5048503;28;20024;-72
2022/12/27 08:58:42;;;;;;;12.88;4.10;;;4.30;99.90;;;;;;5048453;28;20062;-71
2022/12/27 09:01:09;;;;;;;14.27;4.18;;;4.30;99.90;;;;;;5043221;28;20038;-70
2022/12/27 09:03:35;;;;;;;16.77;4.32;;;4.40;99.90;;;;;;5044893;28;20377;-71
2022/12/27 09:06:14;;;;;;;9.50;4.00;;;4.40;99.90;;;;;;5043314;28;20025;-71
2022/12/27 09:08:40;;;;;;;15.93;5.03;;;4.50;99.90;;;;;;5040592;28;20064;-71
2022/12/27 09:11:28;;;;;;;18.42;4.53;;;4.60;99.90;;;;;;5036759;28;20048;-74
2022/12/27 09:13:54;;;;;;;14.50;4.35;;;4.60;99.90;;;;;;5033670;28;20022;-78
2022/12/27 09:16:22;;;;;;;15.52;4.68;;;4.70;99.90;;;;;;5043088;28;20147;-74
2022/12/27 09:18:50;;;;;;;9.95;4.85;;;4.70;99.90;;;;;;5049187;28;20017;-72
2022/12/27 09:21:17;;;;;;;11.30;5.22;;;4.60;99.90;;;;;;5052183;28;20066;-70
2022/12/27 09:23:44;;;;;;;7.60;4.25;;;4.70;99.90;;;;;;5046164;28;20036;-69
2022/12/27 09:26:12;;;;;;;16.52;5.07;;;4.70;99.90;;;;;;5043209;28;20049;-72
2022/12/27 09:28:38;;;;;;;15.40;5.78;;;4.80;99.90;;;;;;5046694;28;20025;-70
2022/12/27 09:31:04;;;;;;;25.25;5.05;;;4.90;99.90;;;;;;5043912;28;20037;-71
2022/12/27 09:33:31;;;;;;;11.95;4.35;;;4.90;99.90;;;;;;5048741;28;20587;-71
2022/12/27 09:36:12;;;;;;;14.57;4.78;;;4.90;99.90;;;;;;5044192;28;20590;-70
2022/12/27 09:38:38;;;;;;;15.13;5.20;;;4.90;99.90;;;;;;5045590;28;20104;-70
2022/12/27 09:41:25;;;;;;;12.20;4.55;;;5.00;99.90;;;;;;5043997;28;20477;-74
2022/12/27 09:44:24;;;;;;;11.73;4.80;;;5.00;99.90;;;;;;5046140;28;20037;-77
2022/12/27 09:47:11;;;;;;;13.48;5.38;;;4.90;99.90;;;;;;5047548;28;20067;-73
2022/12/27 09:50:12;;;;;;;14.65;5.45;;;4.90;99.90;;;;;;5046970;28;20036;-70
2022/12/27 09:53:04;;;;;;;19.05;5.57;;;5.10;99.90;;;;;;5047896;28;20040;-71
2022/12/27 09:55:29;;;;;;;15.40;5.15;;;5.10;99.90;;;;;;5049837;28;20029;-71
2022/12/27 09:58:14;;;;;;;15.60;4.80;;;5.10;99.90;;;;;;5046852;28;20032;-73
2022/12/27 10:00:40;;;;;;;11.80;5.05;;;5.20;99.90;;;;;;5051282;28;20473;-73
2022/12/27 10:03:06;;;;;;;18.60;5.20;;;5.10;99.90;;;;;;5051643;28;20021;-72
2022/12/27 10:05:36;;;;;;;12.80;5.53;;;5.20;99.90;;;;;;5049530;28;20392;-72
2022/12/27 10:08:44;;;;;;;15.98;5.47;;;5.30;99.90;;;;;;5046198;28;20100;-72
2022/12/27 10:11:37;;;;;;;9.57;5.05;;;5.40;99.90;;;;;;5008597;28;20313;-72
2022/12/27 10:14:46;;;;;;;14.27;4.93;;;5.50;99.90;;;;;;5046711;28;20045;-73
2022/12/27 10:17:27;;;;;;;17.67;5.63;;;5.70;99.90;;;;;;5048505;28;20076;-72
2022/12/27 10:20:41;;;;;;;17.95;5.00;;;5.70;99.90;;;;;;5050011;28;20018;-73
2022/12/27 10:23:13;;;;;;;11.88;4.50;;;5.80;99.90;;;;;;5040062;28;20068;-72
2022/12/27 10:25:40;;;;;;;19.10;5.25;;;5.90;99.90;;;;;;5043276;28;20056;-71
2022/12/27 10:28:21;;;;;;;11.43;5.00;;;5.90;99.90;;;;;;5041478;28;20508;-72
2022/12/27 10:30:47;;;;;;;9.77;5.13;;;5.90;99.90;;;;;;5044747;28;20037;-74
2022/12/27 10:33:25;;;;;;;10.48;5.30;;;6.00;99.90;;;;;;5047873;28;20024;-71
2022/12/27 10:35:51;;;;;;;10.77;4.70;;;6.10;99.90;;;;;;5047256;28;20162;-72
2022/12/27 10:38:18;;;;;;;11.02;4.95;;;6.10;99.90;;;;;;5046759;28;20013;-72
2022/12/27 10:41:02;;;;;;;6.82;4.60;;;6.20;99.90;;;;;;5045509;28;20376;-73
2022/12/27 10:43:37;;;;;;;10.30;5.07;;;6.20;99.90;;;;;;5047948;28;20009;-73
2022/12/27 10:46:24;;;;;;;16.58;5.72;;;6.10;99.90;;;;;;5037788;28;20032;-73
2022/12/27 10:48:54;;;;;;;9.38;4.70;;;6.10;99.90;;;;;;5035084;28;20025;-73
2022/12/27 10:51:22;;;;;;;12.05;4.97;;;6.20;99.90;;;;;;5032548;28;20068;-71
2022/12/27 10:53:47;;;;;;;10.38;4.72;;;6.10;99.90;;;;;;5031957;28;20485;-73
2022/12/27 10:56:33;;;;;;;15.57;5.35;;;6.20;99.90;;;;;;5031628;28;20037;-71
2022/12/27 10:59:27;;;;;;;15.35;5.80;;;6.30;99.90;;;;;;5035153;28;20086;-73
2022/12/27 11:01:58;;;;;;;11.18;5.47;;;6.30;99.90;;;;;;5034624;28;20025;-72
2022/12/27 11:04:25;;;;;;;16.90;5.15;;;6.20;99.90;;;;;;5031228;28;20017;-73
2022/12/27 11:07:03;;;;;;;12.27;5.82;;;6.30;99.90;;;;;;5039543;28;20068;-70
2022/12/27 11:09:37;;;;;;;17.42;5.53;;;6.30;99.90;;;;;;5038894;28;20136;-72
2022/12/27 11:12:18;;;;;;;11.48;6.18;;;6.30;99.90;;;;;;5042317;28;20473;-74
2022/12/27 11:15:16;;;;;;;16.17;6.20;;;6.50;99.90;;;;;;5046097;28;20025;-73
2022/12/27 11:17:51;;;;;;;13.38;5.25;;;6.60;99.90;;;;;;5053163;28;20021;-73
2022/12/27 11:20:39;;;;;;;11.32;4.70;;;6.70;99.90;;;;;;5039570;28;20116;-74
2022/12/27 11:23:17;;;;;;;8.27;4.70;;;6.80;99.90;;;;;;5035871;28;20063;-73
2022/12/27 11:25:55;;;;;;;9.40;4.85;;;6.80;99.90;;;;;;5041540;28;20590;-72
2022/12/27 11:28:21;;;;;;;9.68;5.10;;;6.80;99.90;;;;;;5034447;28;20045;-72
2022/12/27 11:31:03;;;;;;;13.68;4.97;;;6.80;99.90;;;;;;5042519;28;20354;-73
2022/12/27 11:33:38;;;;;;;9.70;4.60;;;6.80;99.90;;;;;;5038735;28;20420;-72
2022/12/27 11:36:06;;;;;;;9.70;3.97;;;6.80;99.90;;;;;;5049384;28;20409;-74
2022/12/27 11:38:34;;;;;;;11.25;4.57;;;6.90;99.90;;;;;;5041294;28;20028;-72
2022/12/27 11:41:08;;;;;;;12.80;4.63;;;7.00;99.90;;;;;;5030866;28;20038;-71
2022/12/27 11:43:45;;;;;;;15.15;4.72;;;7.00;99.90;;;;;;5031896;28;20191;-71
2022/12/27 11:46:24;;;;;;;12.63;4.82;;;7.00;99.90;;;;;;5025609;28;20036;-72
2022/12/27 11:48:56;;;;;;;11.45;5.03;;;7.00;99.90;;;;;;5032400;28;20142;-70
2022/12/27 11:51:45;;;;;;;10.65;5.03;;;7.00;99.90;;;;;;5033263;28;20042;-71
2022/12/27 11:54:29;;;;;;;14.80;5.32;;;7.10;99.90;;;;;;5038815;28;20055;-70
2022/12/27 11:57:31;;;;;;;7.43;4.60;;;7.20;99.90;;;;;;5031427;28;20505;-72
2022/12/27 12:00:15;;;;;;;8.52;4.18;;;7.30;99.90;;;;;;5024777;28;20037;-71
2022/12/27 12:02:50;;;;;;;13.23;4.80;;;7.30;99.90;;;;;;5027473;28;20051;-70
2022/12/27 12:05:24;;;;;;;7.63;4.15;;;7.40;99.90;;;;;;5027037;28;20086;-71
2022/12/27 12:08:01;;;;;;;10.90;4.72;;;7.40;99.90;;;;;;5030960;28;20040;-71
2022/12/27 12:11:01;;;;;;;8.20;4.32;;;7.50;99.90;;;;;;5029326;28;20064;-71
2022/12/27 12:13:44;;;;;;;16.27;4.75;;;7.40;99.90;;;;;;5027464;28;20037;-70
2022/12/27 12:16:39;;;;;;;9.98;4.65;;;7.40;99.90;;;;;;5031647;28;20362;-72
2022/12/27 12:19:23;;;;;;;10.85;4.35;;;7.50;99.90;;;;;;5035877;28;20044;-71
2022/12/27 12:22:14;;;;;;;12.90;5.80;;;7.60;99.90;;;;;;5043484;28;20060;-71
2022/12/27 12:25:08;;;;;;;16.30;5.63;;;7.60;99.90;;;;;;5036775;28;20078;-70
2022/12/27 12:28:11;;;;;;;11.15;3.65;;;7.70;99.90;;;;;;5038649;28;20045;-71
2022/12/27 12:31:06;;;;;;;8.43;4.50;;;7.70;99.90;;;;;;5042390;28;20120;-72
2022/12/27 12:33:50;;;;;;;15.55;4.30;;;7.90;99.90;;;;;;5030130;28;20404;-72
2022/12/27 12:37:02;;;;;;;11.63;4.30;;;8.10;99.90;;;;;;5033544;28;20091;-72
2022/12/27 12:39:56;;;;;;;14.82;4.10;;;8.20;99.90;;;;;;5036347;28;20603;-71
2022/12/27 12:42:55;;;;;;;12.00;3.88;;;8.30;99.90;;;;;;5034654;28;20437;-71
2022/12/27 12:45:43;;;;;;;6.05;3.60;;;8.40;99.90;;;;;;5046930;28;20086;-71
2022/12/27 12:48:23;;;;;;;11.43;3.47;;;8.40;99.90;;;;;;5042193;28;20557;-72
2022/12/27 12:51:06;;;;;;;6.72;3.67;;;8.40;99.90;;;;;;5037619;28;20045;-71
2022/12/27 12:53:54;;;;;;;16.15;3.65;;;8.40;99.90;;;;;;5035275;28;20457;-72
2022/12/27 12:56:33;;;;;;;9.38;3.38;;;8.20;99.90;;;;;;5044492;28;20442;-71
2022/12/27 12:59:21;;;;;;;8.80;3.70;;;8.20;99.90;;;;;;5043088;28;20173;-73
2022/12/27 13:02:18;;;;;;;9.82;4.03;;;8.20;99.90;;;;;;5032398;28;20048;-72
2022/12/27 13:05:17;;;;;;;7.90;3.28;;;8.10;99.90;;;;;;5038181;28;20024;-71
2022/12/27 13:08:08;;;;;;;9.90;4.00;;;8.20;99.90;;;;;;5032350;28;20033;-74
2022/12/27 13:10:49;;;;;;;11.50;4.22;;;8.10;99.90;;;;;;5021341;28;20512;-73
2022/12/27 13:13:39;;;;;;;13.15;4.60;;;8.10;99.90;;;;;;5037508;28;20013;-74
2022/12/27 13:16:49;;;;;;;8.57;4.28;;;8.00;99.90;;;;;;5050903;28;20571;-73
2022/12/27 13:19:48;;;;;;;11.77;4.10;;;8.00;99.90;;;;;;5050467;28;20033;-73
2022/12/27 13:22:27;;;;;;;11.63;3.97;;;8.00;99.90;;;;;;5049872;28;20021;-73
2022/12/27 13:25:31;;;;;;;16.95;4.60;;;7.90;99.90;;;;;;5051369;28;20025;-74
2022/12/27 13:28:28;;;;;;;11.95;4.13;;;7.90;99.90;;;;;;5051590;28;20041;-73
2022/12/27 13:31:13;;;;;;;7.70;3.97;;;7.80;99.90;;;;;;5049999;28;20068;-73
2022/12/27 13:34:13;;;;;;;8.02;3.90;;;7.90;99.90;;;;;;5037906;28;20020;-72
2022/12/27 13:36:42;;;;;;;9.57;4.07;;;7.80;99.90;;;;;;5050324;28;20029;-73
2022/12/27 13:39:22;;;;;;;7.50;3.88;;;7.80;99.90;;;;;;5051218;28;20029;-73
2022/12/27 13:42:26;;;;;;;4.35;2.80;;;7.90;99.90;;;;;;5054413;28;20017;-74
2022/12/27 13:45:19;;;;;;;11.32;3.42;;;7.80;99.90;;;;;;5049392;28;20033;-73
2022/12/27 13:48:03;;;;;;;10.20;4.22;;;7.80;99.90;;;;;;5054386;28;20036;-73
2022/12/27 13:50:41;;;;;;;9.63;3.33;;;7.80;99.90;;;;;;5040151;28;20412;-73
2022/12/27 13:53:23;;;;;;;11.65;3.38;;;7.80;99.90;;;;;;5054196;28;20024;-73
2022/12/27 13:56:24;;;;;;;9.32;2.85;;;7.90;99.90;;;;;;5042657;28;20032;-74
2022/12/27 13:59:27;;;;;;;6.68;3.38;;;7.80;99.90;;;;;;5044536;28;20034;-73
2022/12/27 14:02:19;;;;;;;12.77;3.88;;;7.80;99.90;;;;;;5052964;28;20112;-73
2022/12/27 14:05:00;;;;;;;6.88;2.90;;;7.80;99.90;;;;;;5053565;28;20047;-73
2022/12/27 14:08:06;;;;;;;9.55;3.35;;;7.70;99.90;;;;;;5054689;28;20032;-74
2022/12/27 14:10:41;;;;;;;7.18;3.35;;;7.70;99.90;;;;;;5047479;28;20047;-74
2022/12/27 14:13:08;;;;;;;12.00;4.70;;;7.60;99.90;;;;;;5047414;28;20032;-73
2022/12/27 14:15:50;;;;;;;5.50;4.00;;;7.60;99.90;;;;;;5054233;28;20035;-72
2022/12/27 14:18:45;;;;;;;8.55;4.55;;;7.70;99.90;;;;;;5054094;28;20037;-74
2022/12/27 14:21:26;;;;;;;11.60;4.22;;;7.70;99.90;;;;;;5050372;28;20060;-74
2022/12/27 14:24:02;;;;;;;9.10;4.70;;;7.70;99.90;;;;;;5052287;28;20495;-73
2022/12/27 14:26:36;;;;;;;9.45;3.38;;;7.70;99.90;;;;;;5052412;28;20049;-72
2022/12/27 14:29:27;;;;;;;10.07;3.83;;;7.70;99.90;;;;;;5052384;28;20025;-73
2022/12/27 14:31:55;;;;;;;;;;;7.70;99.90;;;;;;5053058;28;20083;-74
2022/12/27 14:34:51;;;;;;;11.60;4.55;;;7.80;99.90;;;;;;5053031;28;19905;-73
2022/12/27 14:37:23;;;;;;;15.70;5.28;;;7.70;99.90;;;;;;5053248;28;20489;-72
2022/12/27 14:40:26;;;;;;;18.80;4.95;;;7.70;99.90;;;;;;5052472;28;20086;-73
2022/12/27 14:43:03;;;;;;;9.60;3.70;;;7.70;99.90;;;;;;5039914;28;20029;-72
2022/12/27 14:45:53;;;;;;;7.72;4.20;;;7.70;99.90;;;;;;5056017;28;20029;-73
2022/12/27 14:48:43;;;;;;;8.73;3.95;;;7.70;99.90;;;;;;5056427;28;20020;-74
2022/12/27 14:51:33;;;;;;;10.40;4.22;;;7.70;99.90;;;;;;5056362;28;20033;-74
2022/12/27 14:54:21;;;;;;;9.07;4.40;;;7.60;99.90;;;;;;5058960;28;20033;-74
2022/12/27 14:57:18;;;;;;;9.90;4.78;;;7.60;99.90;;;;;;5059036;28;20033;-73
2022/12/27 14:59:43;;;;;;;8.40;4.30;;;7.60;99.90;;;;;;5039902;28;20068;-75
2022/12/27 15:02:34;;;;;;;8.93;4.40;;;7.60;99.90;;;;;;5051572;28;20528;-74
2022/12/27 15:05:28;;;;;;;11.80;3.95;;;7.60;99.90;;;;;;5052999;28;20024;-74
2022/12/27 15:08:18;;;;;;;6.85;4.32;;;7.50;99.90;;;;;;5051927;28;20036;-73